Time;durP1;ratioP1;P1;durP2;ratioP2;P2;SDS_P1;SDS_P2;PMS_P1;PMS_P2;Temp;Humidity;BMP_temperature;BMP_pressure;BME280_temperature;BME280_humidity;BME280_pressure;Samples;Min_cycle;Max_cycle;Signal;HPM_P1;HPM_P2
2021/03/28 00:02:25;;;;;;;3.65;2.00;;;8.00;68.00;;;;;;5057898;28;20673;-83
2021/03/28 00:04:58;;;;;;;8.70;2.95;;;7.90;68.50;;;;;;5060253;28;20193;-83
2021/03/28 00:07:37;;;;;;;5.68;2.22;;;7.80;68.40;;;;;;5057978;28;20195;-83
2021/03/28 00:10:09;;;;;;;9.57;2.20;;;7.70;68.90;;;;;;5057279;28;20172;-83
2021/03/28 00:12:38;;;;;;;13.27;3.70;;;7.70;69.10;;;;;;5056316;28;20201;-83
2021/03/28 00:15:09;;;;;;;8.40;2.50;;;7.70;69.20;;;;;;5055724;28;20685;-83
2021/03/28 00:17:38;;;;;;;5.60;1.98;;;7.60;69.10;;;;;;5056277;28;20201;-82
2021/03/28 00:20:16;;;;;;;6.03;2.20;;;7.60;69.20;;;;;;5054956;28;20269;-82
2021/03/28 00:22:46;;;;;;;6.68;2.42;;;7.50;69.60;;;;;;5056418;28;20189;-83
2021/03/28 00:25:19;;;;;;;7.50;2.38;;;7.50;69.80;;;;;;5056492;28;20189;-83
2021/03/28 00:27:49;;;;;;;2.95;1.33;;;7.50;69.40;;;;;;5057140;28;20185;-83
2021/03/28 00:30:15;;;;;;;6.75;1.88;;;7.50;67.60;;;;;;5056578;28;20173;-83
2021/03/28 00:32:44;;;;;;;9.82;2.47;;;7.60;67.60;;;;;;5057424;28;20201;-83
2021/03/28 00:35:21;;;;;;;7.32;2.80;;;7.60;68.00;;;;;;5056426;28;20196;-83
2021/03/28 00:38:00;;;;;;;5.80;2.08;;;7.70;67.80;;;;;;5055622;28;20617;-83
2021/03/28 00:40:30;;;;;;;6.90;2.60;;;7.70;67.60;;;;;;5055578;28;20168;-83
2021/03/28 00:43:14;;;;;;;9.13;1.92;;;7.70;67.60;;;;;;5055106;28;20292;-83
2021/03/28 00:45:40;;;;;;;5.10;2.00;;;7.70;67.80;;;;;;5055590;28;20540;-83
2021/03/28 00:48:15;;;;;;;6.40;2.13;;;7.70;67.40;;;;;;5055591;28;20268;-83
2021/03/28 00:50:44;;;;;;;12.10;1.90;;;7.70;67.30;;;;;;5055480;28;20319;-83
2021/03/28 00:53:13;;;;;;;10.30;2.38;;;7.80;67.10;;;;;;5055539;28;20231;-83
2021/03/28 00:55:54;;;;;;;3.85;2.40;;;7.80;67.30;;;;;;5056362;28;20200;-83
2021/03/28 00:58:25;;;;;;;5.00;2.28;;;7.80;67.40;;;;;;5055626;28;20197;-83
2021/03/28 01:01:13;;;;;;;7.88;2.40;;;7.70;67.80;;;;;;5055553;28;20589;-83
2021/03/28 01:04:06;;;;;;;7.35;2.63;;;7.70;68.00;;;;;;5055610;28;20169;-81
2021/03/28 01:06:45;;;;;;;5.35;2.28;;;7.70;67.80;;;;;;5055484;28;20169;-83
2021/03/28 01:09:38;;;;;;;6.45;2.53;;;7.60;67.70;;;;;;5055203;28;20648;-83
2021/03/28 01:12:41;;;;;;;14.75;2.38;;;7.70;67.80;;;;;;5055321;28;20296;-83
2021/03/28 01:15:37;;;;;;;7.72;3.00;;;7.60;67.00;;;;;;5055540;28;20195;-83
2021/03/28 01:18:19;;;;;;;7.45;2.28;;;7.60;67.40;;;;;;5054499;28;20164;-83
2021/03/28 01:21:12;;;;;;;5.95;2.53;;;7.60;68.00;;;;;;5055478;28;20208;-83
2021/03/28 01:23:41;;;;;;;12.35;2.80;;;7.60;68.10;;;;;;5055395;28;20172;-83
2021/03/28 01:26:09;;;;;;;4.90;2.75;;;7.50;68.40;;;;;;5055023;28;20180;-83
2021/03/28 01:28:54;;;;;;;4.25;2.20;;;7.50;68.00;;;;;;5055025;28;20543;-83
2021/03/28 01:31:35;;;;;;;6.97;2.22;;;7.40;68.70;;;;;;5053959;28;20196;-83
2021/03/28 01:34:07;;;;;;;5.97;2.38;;;7.40;68.80;;;;;;5054126;28;20203;-83
2021/03/28 01:36:40;;;;;;;10.57;2.13;;;7.40;68.80;;;;;;5054757;28;20209;-83
2021/03/28 01:39:17;;;;;;;7.00;3.55;;;7.40;68.90;;;;;;5054829;28;20165;-83
2021/03/28 01:41:53;;;;;;;15.25;3.25;;;7.30;68.70;;;;;;5054516;28;20673;-83
2021/03/28 01:44:29;;;;;;;12.35;2.83;;;7.30;68.50;;;;;;5054545;28;20212;-83
2021/03/28 01:47:02;;;;;;;4.30;2.45;;;7.30;68.80;;;;;;5054092;28;20165;-83
2021/03/28 01:49:56;;;;;;;5.20;2.53;;;7.20;69.50;;;;;;5053889;28;20169;-83
2021/03/28 01:53:07;;;;;;;6.20;2.20;;;7.20;69.90;;;;;;5034416;28;20300;-83
2021/03/28 01:56:02;;;;;;;17.85;2.67;;;7.20;69.90;;;;;;5033797;28;20338;-83
2021/03/28 01:58:40;;;;;;;14.05;2.60;;;7.20;69.80;;;;;;5052085;28;20177;-83
2021/03/28 02:01:24;;;;;;;7.55;2.08;;;7.20;69.60;;;;;;5053383;28;20264;-83
2021/03/28 02:04:20;;;;;;;6.85;2.70;;;7.20;69.80;;;;;;5053905;28;20789;-83
2021/03/28 02:07:07;;;;;;;19.17;2.17;;;7.20;69.50;;;;;;5045332;28;20205;-83
2021/03/28 02:10:04;;;;;;;3.20;1.92;;;7.30;70.10;;;;;;5053604;28;20545;-83
2021/03/28 02:12:50;;;;;;;6.47;2.25;;;7.30;69.60;;;;;;5053500;28;20212;-83
2021/03/28 02:15:34;;;;;;;3.53;2.05;;;7.30;69.60;;;;;;5053429;28;20184;-83
2021/03/28 02:18:36;;;;;;;10.43;3.35;;;7.30;70.10;;;;;;5054009;28;20518;-83
2021/03/28 02:21:14;;;;;;;7.75;2.15;;;7.40;70.20;;;;;;5043645;28;20181;-83
2021/03/28 02:23:53;;;;;;;5.03;1.98;;;7.40;70.90;;;;;;5052649;28;20204;-83
2021/03/28 02:26:51;;;;;;;8.70;2.60;;;7.40;70.50;;;;;;5053111;28;20197;-83
2021/03/28 02:29:26;;;;;;;5.35;2.10;;;7.30;70.90;;;;;;5037233;28;20235;-83
2021/03/28 02:32:29;;;;;;;10.70;2.67;;;7.30;71.30;;;;;;5052981;28;20602;-83
2021/03/28 02:35:12;;;;;;;10.70;2.70;;;7.30;70.90;;;;;;5053232;28;20169;-83
2021/03/28 02:38:07;;;;;;;5.40;2.15;;;7.30;71.20;;;;;;5053951;28;20239;-83
2021/03/28 02:40:45;;;;;;;6.38;2.30;;;7.30;70.90;;;;;;5052997;28;20256;-83
2021/03/28 02:43:45;;;;;;;14.13;2.90;;;7.20;71.60;;;;;;5052767;28;20204;-83
2021/03/28 02:46:28;;;;;;;6.65;2.40;;;7.20;71.70;;;;;;5054274;28;20644;-83
2021/03/28 02:49:36;;;;;;;8.57;2.88;;;7.20;71.30;;;;;;5054681;28;20165;-83
2021/03/28 02:52:44;;;;;;;12.43;2.42;;;7.20;71.40;;;;;;5034755;28;20220;-83
2021/03/28 02:55:28;;;;;;;4.75;2.00;;;7.20;71.60;;;;;;5054093;28;20162;-83
2021/03/28 02:58:09;;;;;;;20.48;2.45;;;7.20;71.90;;;;;;5054004;28;20173;-83
2021/03/28 03:01:02;;;;;;;7.18;2.55;;;7.20;72.00;;;;;;5053819;28;20641;-83
2021/03/28 03:03:28;;;;;;;6.88;2.35;;;7.30;71.90;;;;;;5054020;28;20223;-83
2021/03/28 03:06:05;;;;;;;6.27;2.13;;;7.20;72.30;;;;;;5053573;28;20181;-83
2021/03/28 03:09:13;;;;;;;9.95;2.17;;;7.20;72.10;;;;;;5053913;28;20505;-83
2021/03/28 03:12:07;;;;;;;4.25;1.90;;;7.20;72.60;;;;;;5053951;28;20192;-83
2021/03/28 03:14:45;;;;;;;12.68;2.28;;;7.10;72.60;;;;;;5053912;28;20205;-83
2021/03/28 03:17:48;;;;;;;5.55;2.05;;;7.10;73.30;;;;;;5053605;28;20307;-83
2021/03/28 03:20:13;;;;;;;12.20;4.35;;;7.00;73.30;;;;;;5053885;28;20173;-83
2021/03/28 03:23:19;;;;;;;6.77;1.87;;;7.00;73.70;;;;;;5052761;28;20211;-83
2021/03/28 03:26:08;;;;;;;9.68;2.17;;;7.00;73.30;;;;;;5053118;28;20404;-83
2021/03/28 03:29:02;;;;;;;5.18;2.75;;;7.00;72.80;;;;;;5053361;28;20181;-83
2021/03/28 03:31:46;;;;;;;10.38;2.35;;;7.00;72.60;;;;;;5052964;28;20723;-83
2021/03/28 03:35:00;;;;;;;8.15;2.30;;;7.00;72.60;;;;;;5052586;28;20181;-83
2021/03/28 03:37:59;;;;;;;5.28;2.03;;;7.00;71.70;;;;;;5017124;28;20281;-83
2021/03/28 03:40:43;;;;;;;7.28;1.95;;;7.10;71.40;;;;;;5052713;28;20196;-83
2021/03/28 03:43:36;;;;;;;4.65;1.80;;;7.10;71.40;;;;;;5052689;28;20193;-83
2021/03/28 03:46:02;;;;;;;5.13;1.75;;;7.00;71.40;;;;;;5052436;28;20165;-83
2021/03/28 03:48:59;;;;;;;6.90;2.00;;;7.10;71.90;;;;;;5053043;28;20174;-83
2021/03/28 03:51:52;;;;;;;10.63;1.73;;;7.10;72.30;;;;;;5052794;28;20216;-83
2021/03/28 03:54:39;;;;;;;5.30;2.78;;;7.10;72.10;;;;;;5054278;28;20252;-84
2021/03/28 03:57:40;;;;;;;6.28;2.35;;;7.00;72.10;;;;;;5054939;28;20165;-83
2021/03/28 04:00:18;;;;;;;6.00;2.45;;;6.80;73.70;;;;;;5050865;28;20177;-84
2021/03/28 04:02:54;;;;;;;5.30;2.58;;;6.80;74.20;;;;;;5054582;28;20208;-84
2021/03/28 04:05:51;;;;;;;10.25;2.67;;;6.70;74.40;;;;;;5054687;28;20161;-84
2021/03/28 04:08:48;;;;;;;11.85;3.85;;;6.70;74.40;;;;;;5054480;28;20208;-84
2021/03/28 04:11:44;;;;;;;14.18;2.65;;;6.70;74.40;;;;;;5054698;28;20180;-84
2021/03/28 04:14:29;;;;;;;9.77;2.25;;;6.70;74.10;;;;;;5054833;28;20199;-84
2021/03/28 04:17:32;;;;;;;17.17;2.17;;;6.60;74.10;;;;;;5054844;28;20173;-84
2021/03/28 04:20:12;;;;;;;8.15;2.42;;;6.50;74.90;;;;;;5127353;22;20772;-80
2021/03/28 04:22:37;;;;;;;18.55;3.60;;;6.50;75.30;;;;;;5061254;28;20334;-79
2021/03/28 04:25:25;;;;;;;10.67;2.93;;;6.40;75.80;;;;;;5061834;28;20243;-80
2021/03/28 04:28:29;;;;;;;6.38;2.63;;;6.40;75.80;;;;;;5061932;28;20192;-80
2021/03/28 04:30:55;;;;;;;10.70;3.53;;;6.40;75.90;;;;;;5050150;28;20181;-80
2021/03/28 04:33:46;;;;;;;5.70;2.03;;;6.40;76.00;;;;;;5060850;28;20224;-80
2021/03/28 04:36:44;;;;;;;10.60;2.30;;;6.40;76.00;;;;;;5061423;28;20200;-80
2021/03/28 04:39:25;;;;;;;10.00;3.45;;;6.30;76.30;;;;;;5061102;28;20173;-80
2021/03/28 04:42:21;;;;;;;7.65;2.58;;;6.40;76.20;;;;;;5060288;28;20238;-80
2021/03/28 04:45:08;;;;;;;6.20;2.65;;;6.30;76.60;;;;;;5060891;28;20170;-80
2021/03/28 04:48:12;;;;;;;11.77;2.78;;;6.20;77.40;;;;;;5061141;28;20596;-80
2021/03/28 04:50:47;;;;;;;10.82;3.88;;;6.20;77.40;;;;;;5061380;28;20176;-80
2021/03/28 04:53:39;;;;;;;12.15;2.17;;;6.10;77.70;;;;;;5061112;28;20201;-79
2021/03/28 04:56:20;;;;;;;5.90;2.63;;;6.00;78.10;;;;;;5051489;28;20177;-80
2021/03/28 04:59:13;;;;;;;8.00;2.90;;;5.90;78.50;;;;;;5061228;28;20173;-80
2021/03/28 05:02:05;;;;;;;17.60;5.05;;;5.90;79.40;;;;;;5060834;28;20189;-80
2021/03/28 05:04:42;;;;;;;8.90;2.97;;;5.80;79.50;;;;;;5061190;28;20169;-79
2021/03/28 05:07:33;;;;;;;10.80;3.35;;;5.80;80.20;;;;;;5061590;28;20169;-80
2021/03/28 05:10:07;;;;;;;10.18;2.90;;;5.80;80.30;;;;;;5061781;28;20268;-80
2021/03/28 05:12:55;;;;;;;7.85;2.92;;;5.80;80.80;;;;;;5060345;28;20200;-80
2021/03/28 05:15:39;;;;;;;7.47;3.20;;;5.70;80.80;;;;;;5060181;28;20200;-79
2021/03/28 05:18:26;;;;;;;15.65;3.40;;;5.60;81.40;;;;;;5060805;28;20176;-79
2021/03/28 05:21:16;;;;;;;9.23;3.00;;;5.60;81.90;;;;;;5060838;28;20185;-80
2021/03/28 05:23:57;;;;;;;14.07;3.55;;;5.50;82.30;;;;;;5061322;28;20233;-80
2021/03/28 05:26:53;;;;;;;9.52;3.40;;;5.50;82.30;;;;;;5062077;28;20183;-81
2021/03/28 05:29:52;;;;;;;10.20;3.70;;;5.50;82.70;;;;;;5057883;28;20211;-79
2021/03/28 05:32:33;;;;;;;17.52;4.20;;;5.40;82.70;;;;;;5058381;28;20292;-79
2021/03/28 05:35:17;;;;;;;8.98;3.70;;;5.50;82.60;;;;;;5056996;28;20169;-78
2021/03/28 05:38:26;;;;;;;15.98;3.47;;;5.40;82.80;;;;;;5053926;28;20161;-77
2021/03/28 05:41:11;;;;;;;7.05;3.13;;;5.40;83.40;;;;;;5049155;28;20181;-81
2021/03/28 05:44:19;;;;;;;7.57;3.17;;;5.40;83.30;;;;;;5057059;28;20170;-81
2021/03/28 05:47:13;;;;;;;17.88;2.88;;;5.40;83.40;;;;;;5056798;28;20177;-81
2021/03/28 05:50:11;;;;;;;12.93;4.00;;;5.30;84.10;;;;;;5059144;28;20189;-84
2021/03/28 05:52:55;;;;;;;11.05;3.45;;;5.30;83.80;;;;;;5058189;28;20683;-82
2021/03/28 05:55:43;;;;;;;9.68;4.20;;;5.30;83.90;;;;;;5058472;28;20177;-82
2021/03/28 05:58:27;;;;;;;12.05;3.72;;;5.40;83.50;;;;;;5057494;28;20260;-82
2021/03/28 06:01:02;;;;;;;8.82;3.83;;;5.40;83.00;;;;;;5058628;28;20169;-83
2021/03/28 06:04:05;;;;;;;14.10;3.25;;;5.30;83.40;;;;;;5058889;28;20187;-83
2021/03/28 06:06:37;;;;;;;9.57;3.10;;;5.40;83.40;;;;;;5059656;28;20177;-83
2021/03/28 06:09:21;;;;;;;15.18;4.07;;;5.40;83.40;;;;;;5058494;28;20176;-83
2021/03/28 06:11:49;;;;;;;10.65;3.45;;;5.40;83.00;;;;;;5058857;28;20219;-83
2021/03/28 06:14:30;;;;;;;4.20;2.47;;;5.40;83.30;;;;;;5058641;28;20213;-82
2021/03/28 06:17:23;;;;;;;15.40;4.28;;;5.40;83.30;;;;;;5058504;28;20189;-83
2021/03/28 06:19:55;;;;;;;8.20;3.10;;;5.30;83.70;;;;;;5058877;28;20181;-82
2021/03/28 06:22:58;;;;;;;10.77;4.07;;;5.40;83.80;;;;;;5059512;28;20203;-83
2021/03/28 06:25:26;;;;;;;5.40;3.42;;;5.40;83.80;;;;;;5058316;28;20177;-82
2021/03/28 06:28:35;;;;;;;13.60;3.35;;;5.40;83.90;;;;;;5058221;28;20180;-83
2021/03/28 06:31:19;;;;;;;12.32;3.95;;;5.40;84.20;;;;;;5058513;28;20727;-83
2021/03/28 06:34:09;;;;;;;8.95;3.67;;;5.40;84.20;;;;;;5059270;28;20193;-83
2021/03/28 06:37:12;;;;;;;7.97;3.38;;;5.40;83.70;;;;;;5059839;28;20161;-83
2021/03/28 06:39:59;;;;;;;11.65;3.30;;;5.50;83.50;;;;;;5059767;28;20198;-83
2021/03/28 06:42:43;;;;;;;14.73;3.28;;;5.60;83.30;;;;;;5059503;28;20196;-83
2021/03/28 06:45:31;;;;;;;9.93;3.47;;;5.70;83.00;;;;;;5059605;28;20177;-82
2021/03/28 06:48:18;;;;;;;6.63;3.35;;;5.70;82.40;;;;;;5058307;28;20699;-82
2021/03/28 06:51:16;;;;;;;10.05;3.17;;;5.80;81.90;;;;;;5058415;28;20223;-82
2021/03/28 06:54:18;;;;;;;6.63;2.97;;;6.00;81.90;;;;;;5058266;28;20268;-83
2021/03/28 06:57:33;;;;;;;11.52;3.90;;;6.10;81.00;;;;;;5057667;28;20176;-82
2021/03/28 07:00:24;;;;;;;12.88;3.42;;;6.30;80.30;;;;;;5058300;28;20170;-83
2021/03/28 07:03:02;;;;;;;11.98;4.03;;;6.50;80.20;;;;;;5059070;28;20193;-80
2021/03/28 07:05:44;;;;;;;9.18;3.33;;;6.60;79.60;;;;;;5060266;28;20195;-80
2021/03/28 07:08:41;;;;;;;10.25;3.58;;;6.70;78.30;;;;;;5059859;28;20173;-80
2021/03/28 07:11:42;;;;;;;6.68;3.10;;;6.90;78.10;;;;;;5059422;28;20177;-81
2021/03/28 07:14:20;;;;;;;10.75;2.80;;;7.10;77.60;;;;;;5058340;28;20271;-80
2021/03/28 07:17:10;;;;;;;7.65;3.53;;;7.30;76.00;;;;;;5057910;28;20220;-80
2021/03/28 07:20:10;;;;;;;13.85;3.53;;;7.50;75.30;;;;;;5058504;28;20185;-80
2021/03/28 07:22:45;;;;;;;12.00;3.28;;;7.50;74.60;;;;;;5058967;28;20189;-80
2021/03/28 07:25:26;;;;;;;7.80;3.42;;;7.70;73.80;;;;;;5058688;28;20176;-80
2021/03/28 07:28:35;;;;;;;12.18;3.38;;;7.80;73.70;;;;;;5059134;28;20177;-80
2021/03/28 07:31:26;;;;;;;7.68;2.95;;;7.90;73.50;;;;;;5061707;28;20170;-80
2021/03/28 07:34:26;;;;;;;12.48;3.45;;;8.00;73.10;;;;;;5061922;28;20197;-80
2021/03/28 07:37:09;;;;;;;10.82;3.33;;;8.20;72.30;;;;;;5062330;28;20173;-80
2021/03/28 07:39:56;;;;;;;9.05;3.42;;;8.30;72.40;;;;;;5062541;28;20218;-80
2021/03/28 07:42:37;;;;;;;12.95;4.05;;;8.50;72.30;;;;;;5061947;28;20645;-80
2021/03/28 07:45:20;;;;;;;5.65;3.00;;;8.60;71.40;;;;;;5061921;28;20703;-81
2021/03/28 07:48:01;;;;;;;9.88;3.15;;;8.70;70.30;;;;;;5061621;28;20180;-80
2021/03/28 07:50:49;;;;;;;11.07;3.80;;;9.00;70.30;;;;;;5061590;28;20181;-80
2021/03/28 07:53:36;;;;;;;8.82;2.78;;;9.20;68.40;;;;;;5062883;28;20193;-81
2021/03/28 07:56:14;;;;;;;11.80;3.08;;;9.40;68.80;;;;;;5063664;28;20169;-80
2021/03/28 07:59:13;;;;;;;6.90;3.50;;;9.60;66.70;;;;;;5063967;28;20173;-81
2021/03/28 08:02:04;;;;;;;9.98;3.78;;;9.70;67.80;;;;;;5063284;28;20283;-80
2021/03/28 08:04:45;;;;;;;8.43;3.50;;;9.90;66.60;;;;;;5061816;28;20173;-80
2021/03/28 08:07:54;;;;;;;5.28;3.03;;;10.00;67.00;;;;;;5061572;28;20165;-80
2021/03/28 08:10:38;;;;;;;9.65;3.28;;;10.10;66.30;;;;;;5061516;28;20203;-81
2021/03/28 08:13:07;;;;;;;11.30;4.15;;;10.20;65.90;;;;;;5065506;28;20197;-81
2021/03/28 08:15:57;;;;;;;9.40;3.22;;;10.40;65.20;;;;;;5063084;28;20197;-80
2021/03/28 08:18:28;;;;;;;11.13;3.20;;;10.40;64.90;;;;;;5062468;28;20219;-80
2021/03/28 08:21:27;;;;;;;10.77;3.10;;;10.40;64.90;;;;;;5062196;28;20177;-80
2021/03/28 08:24:40;;;;;;;11.48;4.18;;;10.50;64.60;;;;;;5061473;28;20169;-80
2021/03/28 08:27:29;;;;;;;17.23;3.13;;;10.60;64.40;;;;;;5061785;28;20265;-80
2021/03/28 08:30:25;;;;;;;10.07;3.45;;;10.60;65.10;;;;;;5060949;28;20169;-80
2021/03/28 08:33:30;;;;;;;15.48;4.60;;;10.60;64.80;;;;;;5061318;28;20208;-82
2021/03/28 08:36:21;;;;;;;19.83;4.63;;;10.60;64.10;;;;;;5053650;28;20184;-80
2021/03/28 08:39:24;;;;;;;5.88;3.25;;;10.70;64.50;;;;;;5061155;28;20259;-80
2021/03/28 08:42:27;;;;;;;8.57;3.47;;;10.80;64.10;;;;;;5061040;28;20673;-81
2021/03/28 08:45:21;;;;;;;5.25;2.50;;;10.80;63.40;;;;;;5060506;28;20176;-80
2021/03/28 08:48:24;;;;;;;5.93;2.53;;;11.00;64.20;;;;;;5059171;28;20193;-80
2021/03/28 08:51:15;;;;;;;11.05;3.38;;;11.20;62.80;;;;;;5060204;28;20168;-80
2021/03/28 08:54:04;;;;;;;14.27;2.83;;;11.30;61.70;;;;;;5059911;28;20238;-80
2021/03/28 08:56:58;;;;;;;8.38;2.78;;;11.40;61.30;;;;;;5059637;28;20169;-80
2021/03/28 08:59:42;;;;;;;9.68;2.97;;;11.50;61.20;;;;;;5060599;28;20193;-80
2021/03/28 09:02:37;;;;;;;7.32;3.25;;;11.60;60.50;;;;;;5059522;28;20288;-80
2021/03/28 09:05:17;;;;;;;6.63;2.10;;;11.80;60.50;;;;;;5059436;28;20169;-80
2021/03/28 09:08:06;;;;;;;4.55;2.25;;;12.00;59.70;;;;;;5061416;28;20169;-79
2021/03/28 09:11:09;;;;;;;12.05;2.92;;;12.10;59.10;;;;;;5061110;28;20844;-80
2021/03/28 09:13:48;;;;;;;11.65;2.65;;;12.30;58.50;;;;;;5061436;28;20205;-81
2021/03/28 09:16:22;;;;;;;8.15;2.10;;;12.50;57.90;;;;;;5060881;28;20166;-80
2021/03/28 09:19:22;;;;;;;10.07;2.60;;;12.60;57.40;;;;;;5060304;28;20187;-80
2021/03/28 09:22:14;;;;;;;10.10;2.38;;;12.70;53.30;;;;;;5062068;28;20197;-80
2021/03/28 09:25:02;;;;;;;8.88;2.10;;;12.80;54.60;;;;;;5051652;28;20209;-80
2021/03/28 09:27:34;;;;;;;3.45;1.80;;;12.90;52.90;;;;;;5061732;28;20184;-80
2021/03/28 09:30:27;;;;;;;8.20;2.15;;;13.00;52.20;;;;;;5061155;28;20188;-80
2021/03/28 09:32:59;;;;;;;4.85;2.00;;;13.20;50.50;;;;;;5062483;28;20185;-80
2021/03/28 09:35:46;;;;;;;4.85;1.60;;;13.20;48.30;;;;;;5062016;28;20169;-80
2021/03/28 09:38:41;;;;;;;2.83;2.10;;;13.30;49.00;;;;;;5062952;28;20182;-80
2021/03/28 09:41:16;;;;;;;8.30;2.00;;;13.30;48.40;;;;;;5062047;28;20185;-80
2021/03/28 09:43:45;;;;;;;6.95;1.83;;;13.20;48.80;;;;;;5063233;28;20248;-80
2021/03/28 09:46:42;;;;;;;2.55;1.60;;;13.40;49.90;;;;;;5062403;28;20173;-80
2021/03/28 09:49:45;;;;;;;3.53;1.52;;;13.60;48.60;;;;;;5062371;28;20181;-79
2021/03/28 09:52:40;;;;;;;4.40;1.92;;;13.70;45.00;;;;;;5061118;28;20565;-80
2021/03/28 09:55:37;;;;;;;3.75;1.40;;;13.90;44.80;;;;;;5061488;28;20512;-78
2021/03/28 09:58:40;;;;;;;6.38;1.92;;;14.10;44.40;;;;;;5061914;28;20180;-78
2021/03/28 10:01:09;;;;;;;6.32;1.42;;;14.20;45.00;;;;;;5061007;28;20311;-80
2021/03/28 10:03:56;;;;;;;3.10;1.48;;;14.20;45.00;;;;;;5059950;28;20173;-79
2021/03/28 10:06:25;;;;;;;9.85;3.95;;;14.30;44.80;;;;;;5059398;28;20181;-80
2021/03/28 10:09:18;;;;;;;5.07;1.50;;;14.40;45.60;;;;;;5059042;28;20183;-80
2021/03/28 10:11:51;;;;;;;3.97;1.80;;;14.50;45.70;;;;;;5057722;28;20201;-82
2021/03/28 10:14:30;;;;;;;5.70;2.08;;;14.70;45.00;;;;;;5057909;28;20263;-79
2021/03/28 10:17:36;;;;;;;4.57;1.80;;;14.80;45.60;;;;;;5057949;28;20635;-78
2021/03/28 10:20:34;;;;;;;7.78;2.63;;;15.00;44.00;;;;;;5118612;22;20253;-84
2021/03/28 10:23:18;;;;;;;9.05;2.15;;;15.10;43.50;;;;;;5032852;28;20208;-84
2021/03/28 10:26:19;;;;;;;13.98;1.83;;;15.20;43.60;;;;;;5033165;28;20174;-83
2021/03/28 10:29:28;;;;;;;11.52;2.67;;;15.50;43.20;;;;;;5040654;28;20181;-83
2021/03/28 10:32:20;;;;;;;3.95;1.42;;;15.70;42.70;;;;;;5033020;28;20255;-83
2021/03/28 10:35:23;;;;;;;7.07;1.75;;;15.80;41.60;;;;;;5033472;28;20277;-83
2021/03/28 10:38:17;;;;;;;7.00;2.17;;;16.00;41.60;;;;;;5034122;28;20173;-83
2021/03/28 10:40:54;;;;;;;11.50;3.25;;;16.00;41.60;;;;;;5031207;28;20661;-84
2021/03/28 10:43:28;;;;;;;2.78;1.90;;;16.20;41.20;;;;;;5029053;28;20661;-84
2021/03/28 10:46:13;;;;;;;5.25;2.28;;;16.10;40.60;;;;;;5031320;28;20172;-84
2021/03/28 10:49:17;;;;;;;8.90;2.05;;;16.00;41.80;;;;;;5031935;28;20185;-83
2021/03/28 10:52:20;;;;;;;3.03;1.85;;;16.20;41.40;;;;;;5028817;28;20205;-83
2021/03/28 10:55:05;;;;;;;7.82;2.03;;;16.30;40.30;;;;;;5034598;28;20543;-82
2021/03/28 10:58:13;;;;;;;9.20;2.83;;;16.30;40.50;;;;;;5034287;28;20264;-83
2021/03/28 11:01:02;;;;;;;9.73;2.25;;;16.40;41.00;;;;;;5033827;28;20205;-82
2021/03/28 11:03:47;;;;;;;5.07;2.00;;;16.50;39.90;;;;;;5036176;28;20181;-83
2021/03/28 11:06:31;;;;;;;3.35;1.98;;;16.50;39.40;;;;;;5039600;28;20622;-82
2021/03/28 11:09:20;;;;;;;9.88;4.10;;;16.60;41.20;;;;;;5041170;28;20541;-82
2021/03/28 11:12:01;;;;;;;5.55;2.45;;;16.80;39.50;;;;;;5043037;28;20194;-81
2021/03/28 11:14:32;;;;;;;4.85;2.28;;;16.90;39.80;;;;;;5042910;28;20320;-81
2021/03/28 11:17:31;;;;;;;3.40;1.63;;;17.10;39.70;;;;;;5042199;28;20173;-82
2021/03/28 11:20:29;;;;;;;4.90;1.92;;;17.30;38.10;;;;;;5048477;28;20196;-82
2021/03/28 11:23:46;;;;;;;6.30;2.13;;;17.40;37.80;;;;;;5062031;28;20200;-81
2021/03/28 11:26:24;;;;;;;4.22;2.15;;;17.50;38.50;;;;;;5021597;28;20213;-81
2021/03/28 11:29:09;;;;;;;7.63;2.50;;;17.70;37.40;;;;;;5061301;28;20671;-82
2021/03/28 11:31:53;;;;;;;8.55;1.90;;;17.90;37.80;;;;;;5061444;28;20193;-82
2021/03/28 11:34:47;;;;;;;3.00;1.90;;;17.70;36.80;;;;;;5061922;28;20209;-82
2021/03/28 11:37:41;;;;;;;6.93;2.40;;;17.80;36.40;;;;;;5048256;28;20178;-82
2021/03/28 11:40:45;;;;;;;6.18;2.33;;;17.50;35.60;;;;;;5058207;28;20515;-83
2021/03/28 11:43:11;;;;;;;5.70;1.52;;;17.30;36.50;;;;;;4968387;28;20200;-85
2021/03/28 11:45:43;;;;;;;7.03;2.40;;;17.30;38.80;;;;;;5055031;28;20663;-85
2021/03/28 11:48:45;;;;;;;14.73;2.40;;;17.40;36.50;;;;;;5054823;28;20192;-85
2021/03/28 11:51:24;;;;;;;4.80;1.60;;;17.60;36.80;;;;;;5054920;28;20180;-85
2021/03/28 11:54:04;;;;;;;13.80;2.58;;;17.90;36.80;;;;;;5057124;28;20679;-82
2021/03/28 11:56:35;;;;;;;6.68;2.10;;;18.00;35.60;;;;;;5056792;28;20496;-84
2021/03/28 11:59:05;;;;;;;4.70;1.90;;;18.20;36.30;;;;;;5054864;28;20217;-84
2021/03/28 12:01:59;;;;;;;7.30;2.83;;;18.00;38.00;;;;;;5054714;28;20560;-85
2021/03/28 12:04:38;;;;;;;4.93;2.00;;;17.90;36.70;;;;;;5057742;28;20177;-84
2021/03/28 12:07:13;;;;;;;4.05;2.25;;;17.80;37.00;;;;;;5056261;28;20211;-80
2021/03/28 12:09:47;;;;;;;7.60;2.00;;;17.70;36.70;;;;;;5056086;28;20226;-81
2021/03/28 12:12:24;;;;;;;8.27;2.25;;;17.80;38.10;;;;;;5056339;28;20193;-81
2021/03/28 12:14:51;;;;;;;8.15;2.47;;;17.90;38.10;;;;;;5055355;28;20173;-81
2021/03/28 12:17:21;;;;;;;10.00;2.95;;;17.90;37.80;;;;;;5056066;28;20169;-81
2021/03/28 12:20:03;;;;;;;8.65;2.30;;;18.10;38.40;;;;;;5056860;28;20595;-81
2021/03/28 12:22:38;;;;;;;13.68;3.22;;;18.30;38.50;;;;;;5056775;28;20609;-81
2021/03/28 12:25:07;;;;;;;5.05;1.80;;;18.40;38.80;;;;;;5056297;28;20632;-81
2021/03/28 12:27:45;;;;;;;11.27;2.22;;;18.60;37.70;;;;;;5056172;28;20180;-82
2021/03/28 12:30:29;;;;;;;4.13;2.30;;;18.90;37.80;;;;;;5056344;28;20173;-81
2021/03/28 12:33:10;;;;;;;5.68;2.38;;;19.10;36.80;;;;;;5056096;28;20546;-81
2021/03/28 12:35:58;;;;;;;6.38;2.10;;;19.30;35.20;;;;;;5054522;28;20214;-85
2021/03/28 12:38:27;;;;;;;10.45;2.08;;;19.10;33.80;;;;;;5054373;28;20166;-84
2021/03/28 12:41:12;;;;;;;4.68;1.90;;;19.00;35.10;;;;;;5054285;28;20199;-85
2021/03/28 12:43:48;;;;;;;6.13;2.15;;;19.20;34.30;;;;;;5054005;28;20227;-84
2021/03/28 12:46:26;;;;;;;4.53;2.70;;;19.30;35.30;;;;;;5056483;28;20203;-83
2021/03/28 12:49:07;;;;;;;9.10;2.70;;;19.30;35.10;;;;;;5057103;28;20211;-84
2021/03/28 12:51:40;;;;;;;4.28;2.00;;;19.40;34.40;;;;;;5035705;28;20658;-84
2021/03/28 12:54:20;;;;;;;4.25;2.20;;;19.40;33.90;;;;;;5034936;28;20285;-83
2021/03/28 12:56:51;;;;;;;4.88;2.03;;;19.40;35.00;;;;;;5037773;28;20201;-83
2021/03/28 12:59:47;;;;;;;6.40;2.10;;;19.50;34.70;;;;;;5041051;28;20265;-81
2021/03/28 13:02:28;;;;;;;7.05;2.20;;;19.40;35.30;;;;;;5027722;28;20576;-81
2021/03/28 13:05:00;;;;;;;6.05;2.20;;;19.40;36.40;;;;;;5046336;28;20252;-83
2021/03/28 13:07:57;;;;;;;11.35;2.97;;;19.60;34.70;;;;;;5056586;28;20170;-82
2021/03/28 13:10:39;;;;;;;17.40;4.65;;;19.70;34.60;;;;;;5041130;28;20226;-83
2021/03/28 13:13:16;;;;;;;4.97;2.20;;;19.70;33.90;;;;;;5057304;28;20692;-82
2021/03/28 13:16:00;;;;;;;6.80;2.00;;;19.90;33.60;;;;;;5056841;28;20307;-83
2021/03/28 13:18:47;;;;;;;5.93;2.97;;;19.80;34.70;;;;;;5057392;28;20173;-83
2021/03/28 13:21:24;;;;;;;7.43;2.42;;;19.90;33.10;;;;;;5058110;28;20193;-83
2021/03/28 13:24:02;;;;;;;3.63;1.73;;;20.00;34.70;;;;;;5056726;28;20204;-84
2021/03/28 13:26:37;;;;;;;7.38;1.85;;;20.00;33.50;;;;;;5054678;28;20246;-84
2021/03/28 13:29:35;;;;;;;7.38;2.10;;;20.00;33.60;;;;;;5053578;28;20268;-84
2021/03/28 13:32:05;;;;;;;12.40;2.47;;;19.90;34.30;;;;;;5053065;28;20189;-83
2021/03/28 13:34:39;;;;;;;6.70;1.98;;;19.90;33.90;;;;;;5053811;28;20181;-83
2021/03/28 13:37:23;;;;;;;5.20;1.65;;;20.00;33.40;;;;;;5053464;28;20180;-84
2021/03/28 13:39:58;;;;;;;4.47;1.83;;;20.10;32.90;;;;;;5053309;28;20177;-86
2021/03/28 13:43:03;;;;;;;8.15;2.20;;;20.30;32.30;;;;;;5053088;28;20197;-86
2021/03/28 13:45:37;;;;;;;5.97;2.30;;;20.30;32.70;;;;;;5053787;28;20177;-84
2021/03/28 13:48:09;;;;;;;6.55;2.08;;;20.50;32.50;;;;;;5054878;28;20166;-84
2021/03/28 13:50:46;;;;;;;5.15;2.10;;;20.70;33.80;;;;;;5053698;28;20180;-84
2021/03/28 13:53:24;;;;;;;6.22;2.80;;;20.60;31.40;;;;;;5054116;28;20232;-83
2021/03/28 13:56:07;;;;;;;5.05;2.53;;;20.80;33.20;;;;;;5056330;28;20173;-81
2021/03/28 13:58:39;;;;;;;4.30;1.90;;;20.70;31.00;;;;;;5055904;28;20528;-82
2021/03/28 14:01:15;;;;;;;7.25;2.13;;;20.40;31.90;;;;;;5054146;28;20211;-86
2021/03/28 14:03:43;;;;;;;5.30;2.33;;;20.20;34.00;;;;;;5052877;28;20207;-86
2021/03/28 14:06:29;;;;;;;5.95;1.83;;;20.30;33.10;;;;;;5052606;28;20183;-85
2021/03/28 14:09:22;;;;;;;4.68;2.10;;;20.40;32.60;;;;;;5032928;28;20205;-85
2021/03/28 14:11:55;;;;;;;5.10;2.10;;;20.60;33.60;;;;;;5048505;28;20190;-86
2021/03/28 14:14:35;;;;;;;2.55;1.63;;;20.60;31.30;;;;;;5050837;28;20724;-86
2021/03/28 14:17:20;;;;;;;4.00;2.13;;;20.70;33.40;;;;;;5052691;28;20642;-86
2021/03/28 14:19:47;;;;;;;7.70;2.05;;;20.70;31.80;;;;;;5052657;28;20181;-84
2021/03/28 14:22:25;;;;;;;5.38;1.85;;;20.50;30.90;;;;;;5052007;28;20275;-85
2021/03/28 14:24:57;;;;;;;5.88;2.28;;;20.30;32.20;;;;;;5052583;28;20626;-85
2021/03/28 14:27:38;;;;;;;8.80;3.05;;;20.40;31.50;;;;;;5052208;28;20169;-85